sensor_id;sensor_type;location;lat;lon;timestamp;P1;durP1;ratioP1;P2;durP2;ratioP2
75516;SDS011;64097;52.548;13.406;2023-12-07T06:06:20;22.77;;;16.20;;
75516;SDS011;64097;52.548;13.406;2023-12-07T06:08:46;22.95;;;16.65;;
75516;SDS011;64097;52.548;13.406;2023-12-07T06:11:12;22.88;;;16.23;;
75516;SDS011;64097;52.548;13.406;2023-12-07T06:13:38;23.80;;;16.77;;
75516;SDS011;64097;52.548;13.406;2023-12-07T06:16:03;22.92;;;16.33;;
75516;SDS011;64097;52.548;13.406;2023-12-07T06:18:30;22.58;;;16.77;;
75516;SDS011;64097;52.548;13.406;2023-12-07T06:20:55;23.13;;;17.13;;
75516;SDS011;64097;52.548;13.406;2023-12-07T06:23:21;22.95;;;16.73;;
75516;SDS011;64097;52.548;13.406;2023-12-07T06:25:47;25.13;;;18.08;;
75516;SDS011;64097;52.548;13.406;2023-12-07T06:28:12;23.00;;;16.85;;
75516;SDS011;64097;52.548;13.406;2023-12-07T06:30:38;23.70;;;17.15;;
75516;SDS011;64097;52.548;13.406;2023-12-07T06:33:04;25.70;;;18.40;;
75516;SDS011;64097;52.548;13.406;2023-12-07T06:35:30;22.10;;;16.95;;
75516;SDS011;64097;52.548;13.406;2023-12-07T06:37:55;24.88;;;18.15;;
75516;SDS011;64097;52.548;13.406;2023-12-07T06:40:22;26.20;;;18.42;;
75516;SDS011;64097;52.548;13.406;2023-12-07T06:42:48;25.13;;;18.10;;
75516;SDS011;64097;52.548;13.406;2023-12-07T06:45:14;22.58;;;16.25;;
75516;SDS011;64097;52.548;13.406;2023-12-07T06:47:40;23.50;;;17.77;;
75516;SDS011;64097;52.548;13.406;2023-12-07T06:50:08;23.00;;;17.88;;
75516;SDS011;64097;52.548;13.406;2023-12-07T06:52:35;23.38;;;17.48;;
75516;SDS011;64097;52.548;13.406;2023-12-07T06:55:01;24.10;;;17.77;;
75516;SDS011;64097;52.548;13.406;2023-12-07T06:57:27;23.77;;;17.35;;
75516;SDS011;64097;52.548;13.406;2023-12-07T06:59:53;23.70;;;16.95;;
75516;SDS011;64097;52.548;13.406;2023-12-07T07:02:18;24.25;;;18.08;;
75516;SDS011;64097;52.548;13.406;2023-12-07T07:04:44;25.55;;;17.77;;
75516;SDS011;64097;52.548;13.406;2023-12-07T07:07:10;25.05;;;17.60;;
75516;SDS011;64097;52.548;13.406;2023-12-07T07:09:35;23.05;;;16.95;;
75516;SDS011;64097;52.548;13.406;2023-12-07T07:12:01;23.60;;;17.02;;
75516;SDS011;64097;52.548;13.406;2023-12-07T07:14:27;24.45;;;17.50;;
75516;SDS011;64097;52.548;13.406;2023-12-07T07:16:52;25.10;;;17.58;;
75516;SDS011;64097;52.548;13.406;2023-12-07T07:19:18;26.20;;;18.15;;
75516;SDS011;64097;52.548;13.406;2023-12-07T07:21:44;25.10;;;17.80;;
75516;SDS011;64097;52.548;13.406;2023-12-07T07:24:09;24.92;;;17.65;;
75516;SDS011;64097;52.548;13.406;2023-12-07T07:26:35;25.95;;;17.08;;
75516;SDS011;64097;52.548;13.406;2023-12-07T07:29:01;26.73;;;18.65;;
75516;SDS011;64097;52.548;13.406;2023-12-07T07:31:28;28.27;;;19.20;;
75516;SDS011;64097;52.548;13.406;2023-12-07T07:33:55;27.75;;;19.15;;
75516;SDS011;64097;52.548;13.406;2023-12-07T07:36:20;26.15;;;17.75;;
75516;SDS011;64097;52.548;13.406;2023-12-07T07:38:46;26.30;;;18.13;;
75516;SDS011;64097;52.548;13.406;2023-12-07T07:41:13;27.67;;;19.60;;
75516;SDS011;64097;52.548;13.406;2023-12-07T07:43:39;27.42;;;19.38;;
75516;SDS011;64097;52.548;13.406;2023-12-07T07:46:05;27.15;;;19.02;;
75516;SDS011;64097;52.548;13.406;2023-12-07T07:48:31;25.30;;;18.17;;
75516;SDS011;64097;52.548;13.406;2023-12-07T07:50:57;22.83;;;17.38;;
75516;SDS011;64097;52.548;13.406;2023-12-07T07:53:23;25.73;;;18.20;;
75516;SDS011;64097;52.548;13.406;2023-12-07T07:55:48;23.38;;;16.83;;
75516;SDS011;64097;52.548;13.406;2023-12-07T07:58:14;23.92;;;17.38;;
75516;SDS011;64097;52.548;13.406;2023-12-07T08:00:40;24.27;;;16.75;;
75516;SDS011;64097;52.548;13.406;2023-12-07T08:03:05;22.73;;;17.02;;
75516;SDS011;64097;52.548;13.406;2023-12-07T08:05:31;23.55;;;17.10;;
75516;SDS011;64097;52.548;13.406;2023-12-07T08:07:58;24.92;;;17.60;;
75516;SDS011;64097;52.548;13.406;2023-12-07T08:10:24;22.85;;;16.05;;
75516;SDS011;64097;52.548;13.406;2023-12-07T08:12:49;22.42;;;16.08;;
75516;SDS011;64097;52.548;13.406;2023-12-07T08:15:15;23.02;;;16.73;;
75516;SDS011;64097;52.548;13.406;2023-12-07T08:17:41;24.48;;;17.90;;
75516;SDS011;64097;52.548;13.406;2023-12-07T08:20:07;23.10;;;17.20;;
75516;SDS011;64097;52.548;13.406;2023-12-07T08:22:35;24.38;;;17.45;;
75516;SDS011;64097;52.548;13.406;2023-12-07T08:25:02;22.85;;;16.77;;
75516;SDS011;64097;52.548;13.406;2023-12-07T08:27:30;25.20;;;18.52;;
75516;SDS011;64097;52.548;13.406;2023-12-07T08:29:59;22.15;;;16.45;;
75516;SDS011;64097;52.548;13.406;2023-12-07T08:32:26;21.90;;;16.27;;
75516;SDS011;64097;52.548;13.406;2023-12-07T08:34:52;21.75;;;16.45;;
75516;SDS011;64097;52.548;13.406;2023-12-07T08:37:18;24.20;;;17.73;;
75516;SDS011;64097;52.548;13.406;2023-12-07T08:39:44;22.45;;;17.40;;
75516;SDS011;64097;52.548;13.406;2023-12-07T08:42:10;24.27;;;17.85;;
75516;SDS011;64097;52.548;13.406;2023-12-07T08:44:36;22.58;;;17.15;;
75516;SDS011;64097;52.548;13.406;2023-12-07T08:47:02;22.45;;;16.70;;
75516;SDS011;64097;52.548;13.406;2023-12-07T08:49:28;21.60;;;16.10;;
75516;SDS011;64097;52.548;13.406;2023-12-07T08:51:54;23.50;;;16.80;;
75516;SDS011;64097;52.548;13.406;2023-12-07T08:54:21;24.30;;;17.27;;
75516;SDS011;64097;52.548;13.406;2023-12-07T08:56:46;22.50;;;17.10;;
75516;SDS011;64097;52.548;13.406;2023-12-07T08:59:12;21.95;;;16.95;;
75516;SDS011;64097;52.548;13.406;2023-12-07T09:01:38;22.55;;;16.55;;
75516;SDS011;64097;52.548;13.406;2023-12-07T09:04:04;22.13;;;16.58;;
75516;SDS011;64097;52.548;13.406;2023-12-07T09:06:30;20.80;;;16.27;;
75516;SDS011;64097;52.548;13.406;2023-12-07T09:08:56;21.10;;;16.48;;
75516;SDS011;64097;52.548;13.406;2023-12-07T09:11:22;20.88;;;16.00;;
75516;SDS011;64097;52.548;13.406;2023-12-07T09:13:48;19.20;;;15.02;;
75516;SDS011;64097;52.548;13.406;2023-12-07T09:16:14;18.23;;;14.10;;
75516;SDS011;64097;52.548;13.406;2023-12-07T09:18:41;19.13;;;14.95;;
75516;SDS011;64097;52.548;13.406;2023-12-07T09:21:07;20.73;;;15.85;;
75516;SDS011;64097;52.548;13.406;2023-12-07T09:23:33;20.50;;;15.73;;
75516;SDS011;64097;52.548;13.406;2023-12-07T09:26:00;20.50;;;15.45;;
75516;SDS011;64097;52.548;13.406;2023-12-07T09:28:26;19.95;;;15.25;;
75516;SDS011;64097;52.548;13.406;2023-12-07T09:30:51;20.80;;;15.15;;
75516;SDS011;64097;52.548;13.406;2023-12-07T09:33:17;22.17;;;16.25;;
75516;SDS011;64097;52.548;13.406;2023-12-07T09:35:43;21.85;;;17.13;;
75516;SDS011;64097;52.548;13.406;2023-12-07T09:38:08;20.40;;;16.23;;
75516;SDS011;64097;52.548;13.406;2023-12-07T09:40:35;22.35;;;17.33;;
75516;SDS011;64097;52.548;13.406;2023-12-07T09:43:00;21.65;;;16.73;;
75516;SDS011;64097;52.548;13.406;2023-12-07T09:45:26;21.58;;;16.75;;
75516;SDS011;64097;52.548;13.406;2023-12-07T09:47:52;21.75;;;16.30;;
75516;SDS011;64097;52.548;13.406;2023-12-07T09:50:20;19.92;;;15.52;;
75516;SDS011;64097;52.548;13.406;2023-12-07T09:52:47;19.02;;;14.55;;
75516;SDS011;64097;52.548;13.406;2023-12-07T09:55:15;19.05;;;14.43;;
75516;SDS011;64097;52.548;13.406;2023-12-07T09:57:45;19.38;;;14.88;;
75516;SDS011;64097;52.548;13.406;2023-12-07T10:00:11;17.52;;;13.82;;
75516;SDS011;64097;52.548;13.406;2023-12-07T10:02:39;19.65;;;14.70;;
75516;SDS011;64097;52.548;13.406;2023-12-07T10:05:10;20.77;;;15.07;;
75516;SDS011;64097;52.548;13.406;2023-12-07T10:07:42;21.23;;;15.80;;
75516;SDS011;64097;52.548;13.406;2023-12-07T10:10:09;21.60;;;15.85;;
75516;SDS011;64097;52.548;13.406;2023-12-07T10:12:45;22.10;;;16.25;;
75516;SDS011;64097;52.548;13.406;2023-12-07T10:15:13;22.25;;;16.70;;
75516;SDS011;64097;52.548;13.406;2023-12-07T10:17:43;23.15;;;16.42;;
75516;SDS011;64097;52.548;13.406;2023-12-07T10:20:23;21.98;;;16.17;;
75516;SDS011;64097;52.548;13.406;2023-12-07T10:23:02;22.63;;;16.95;;
75516;SDS011;64097;52.548;13.406;2023-12-07T10:25:38;23.35;;;16.88;;
75516;SDS011;64097;52.548;13.406;2023-12-07T10:28:08;21.92;;;15.82;;
75516;SDS011;64097;52.548;13.406;2023-12-07T10:30:37;23.10;;;16.52;;
75516;SDS011;64097;52.548;13.406;2023-12-07T10:33:08;22.67;;;17.27;;
75516;SDS011;64097;52.548;13.406;2023-12-07T10:35:41;22.52;;;16.13;;
75516;SDS011;64097;52.548;13.406;2023-12-07T10:38:08;23.73;;;17.33;;
75516;SDS011;64097;52.548;13.406;2023-12-07T10:40:34;23.33;;;17.05;;
75516;SDS011;64097;52.548;13.406;2023-12-07T10:43:00;23.48;;;16.83;;
75516;SDS011;64097;52.548;13.406;2023-12-07T10:45:32;25.95;;;19.02;;
75516;SDS011;64097;52.548;13.406;2023-12-07T10:48:02;23.27;;;17.05;;
75516;SDS011;64097;52.548;13.406;2023-12-07T10:50:31;24.20;;;17.10;;
75516;SDS011;64097;52.548;13.406;2023-12-07T10:53:04;23.30;;;17.00;;
75516;SDS011;64097;52.548;13.406;2023-12-07T10:55:49;24.55;;;17.58;;
75516;SDS011;64097;52.548;13.406;2023-12-07T10:58:20;23.50;;;17.30;;
75516;SDS011;64097;52.548;13.406;2023-12-07T11:00:50;23.25;;;17.35;;
75516;SDS011;64097;52.548;13.406;2023-12-07T11:03:17;23.42;;;16.92;;
75516;SDS011;64097;52.548;13.406;2023-12-07T11:05:46;24.95;;;17.38;;
75516;SDS011;64097;52.548;13.406;2023-12-07T11:08:28;24.10;;;17.02;;
75516;SDS011;64097;52.548;13.406;2023-12-07T11:11:24;22.10;;;16.50;;
75516;SDS011;64097;52.548;13.406;2023-12-07T11:13:58;23.15;;;16.83;;
75516;SDS011;64097;52.548;13.406;2023-12-07T11:16:36;25.10;;;17.63;;
75516;SDS011;64097;52.548;13.406;2023-12-07T11:19:04;25.40;;;18.15;;
75516;SDS011;64097;52.548;13.406;2023-12-07T11:21:48;23.98;;;16.90;;
75516;SDS011;64097;52.548;13.406;2023-12-07T11:24:16;23.52;;;17.65;;
75516;SDS011;64097;52.548;13.406;2023-12-07T11:26:42;24.58;;;17.45;;
75516;SDS011;64097;52.548;13.406;2023-12-07T11:29:09;22.83;;;17.15;;
75516;SDS011;64097;52.548;13.406;2023-12-07T11:31:36;23.42;;;16.65;;
75516;SDS011;64097;52.548;13.406;2023-12-07T11:34:06;22.85;;;16.33;;
75516;SDS011;64097;52.548;13.406;2023-12-07T11:36:32;23.75;;;16.23;;
75516;SDS011;64097;52.548;13.406;2023-12-07T11:41:36;21.57;;;15.83;;
75516;SDS011;64097;52.548;13.406;2023-12-07T11:44:08;22.98;;;17.10;;
75516;SDS011;64097;52.548;13.406;2023-12-07T11:46:35;22.88;;;16.52;;
75516;SDS011;64097;52.548;13.406;2023-12-07T11:49:02;23.33;;;17.38;;
75516;SDS011;64097;52.548;13.406;2023-12-07T11:51:29;22.08;;;16.38;;
75516;SDS011;64097;52.548;13.406;2023-12-07T11:53:54;22.13;;;16.05;;
75516;SDS011;64097;52.548;13.406;2023-12-07T11:56:20;21.00;;;16.02;;
75516;SDS011;64097;52.548;13.406;2023-12-07T11:58:46;21.50;;;16.65;;
75516;SDS011;64097;52.548;13.406;2023-12-07T12:01:13;22.58;;;17.13;;
75516;SDS011;64097;52.548;13.406;2023-12-07T12:03:39;23.20;;;17.50;;
75516;SDS011;64097;52.548;13.406;2023-12-07T12:06:05;21.98;;;16.65;;
75516;SDS011;64097;52.548;13.406;2023-12-07T12:08:33;24.02;;;17.88;;
75516;SDS011;64097;52.548;13.406;2023-12-07T12:10:58;23.40;;;17.45;;
75516;SDS011;64097;52.548;13.406;2023-12-07T12:13:33;22.88;;;17.35;;
75516;SDS011;64097;52.548;13.406;2023-12-07T12:16:00;24.60;;;18.02;;
75516;SDS011;64097;52.548;13.406;2023-12-07T12:18:26;23.95;;;17.45;;
75516;SDS011;64097;52.548;13.406;2023-12-07T12:20:52;25.73;;;17.80;;
75516;SDS011;64097;52.548;13.406;2023-12-07T12:23:19;23.20;;;17.70;;
75516;SDS011;64097;52.548;13.406;2023-12-07T12:25:45;25.25;;;18.23;;
75516;SDS011;64097;52.548;13.406;2023-12-07T12:28:11;25.23;;;19.00;;
75516;SDS011;64097;52.548;13.406;2023-12-07T12:30:44;24.90;;;18.70;;
75516;SDS011;64097;52.548;13.406;2023-12-07T12:33:10;25.13;;;17.95;;
75516;SDS011;64097;52.548;13.406;2023-12-07T12:35:35;25.15;;;18.75;;
75516;SDS011;64097;52.548;13.406;2023-12-07T12:38:01;24.67;;;19.17;;
75516;SDS011;64097;52.548;13.406;2023-12-07T12:40:27;24.77;;;18.70;;
75516;SDS011;64097;52.548;13.406;2023-12-07T12:42:57;25.45;;;17.48;;
75516;SDS011;64097;52.548;13.406;2023-12-07T12:45:23;26.60;;;18.55;;
75516;SDS011;64097;52.548;13.406;2023-12-07T12:47:49;25.45;;;18.92;;
75516;SDS011;64097;52.548;13.406;2023-12-07T12:53:01;25.25;;;19.42;;
75516;SDS011;64097;52.548;13.406;2023-12-07T12:55:30;27.65;;;19.77;;
75516;SDS011;64097;52.548;13.406;2023-12-07T12:57:57;29.50;;;20.48;;
75516;SDS011;64097;52.548;13.406;2023-12-07T13:00:26;30.90;;;21.30;;
75516;SDS011;64097;52.548;13.406;2023-12-07T13:02:52;29.77;;;21.27;;
75516;SDS011;64097;52.548;13.406;2023-12-07T13:05:18;28.48;;;21.35;;
75516;SDS011;64097;52.548;13.406;2023-12-07T13:07:44;28.08;;;21.05;;
75516;SDS011;64097;52.548;13.406;2023-12-07T13:10:13;29.48;;;20.98;;
75516;SDS011;64097;52.548;13.406;2023-12-07T13:12:41;28.42;;;21.17;;
75516;SDS011;64097;52.548;13.406;2023-12-07T13:15:08;29.95;;;20.92;;
75516;SDS011;64097;52.548;13.406;2023-12-07T13:17:34;28.48;;;21.23;;
75516;SDS011;64097;52.548;13.406;2023-12-07T13:20:00;31.80;;;23.00;;
75516;SDS011;64097;52.548;13.406;2023-12-07T13:22:25;31.05;;;22.10;;
75516;SDS011;64097;52.548;13.406;2023-12-07T13:24:51;30.75;;;21.98;;
75516;SDS011;64097;52.548;13.406;2023-12-07T13:27:17;36.22;;;24.55;;
75516;SDS011;64097;52.548;13.406;2023-12-07T13:29:43;33.88;;;24.52;;
75516;SDS011;64097;52.548;13.406;2023-12-07T13:32:09;31.90;;;23.15;;
75516;SDS011;64097;52.548;13.406;2023-12-07T13:34:36;32.28;;;23.15;;
75516;SDS011;64097;52.548;13.406;2023-12-07T13:37:03;33.72;;;23.83;;
75516;SDS011;64097;52.548;13.406;2023-12-07T13:39:30;32.92;;;23.02;;
75516;SDS011;64097;52.548;13.406;2023-12-07T13:41:56;34.75;;;23.55;;
75516;SDS011;64097;52.548;13.406;2023-12-07T13:44:21;35.88;;;24.48;;
75516;SDS011;64097;52.548;13.406;2023-12-07T13:46:49;36.15;;;25.42;;
75516;SDS011;64097;52.548;13.406;2023-12-07T13:49:14;35.22;;;24.20;;
75516;SDS011;64097;52.548;13.406;2023-12-07T13:51:40;36.08;;;24.80;;
75516;SDS011;64097;52.548;13.406;2023-12-07T13:54:07;39.15;;;26.85;;
75516;SDS011;64097;52.548;13.406;2023-12-07T13:56:33;40.05;;;26.55;;
75516;SDS011;64097;52.548;13.406;2023-12-07T13:59:00;39.80;;;27.05;;
75516;SDS011;64097;52.548;13.406;2023-12-07T14:04:07;37.92;;;25.45;;
75516;SDS011;64097;52.548;13.406;2023-12-07T14:06:33;39.38;;;26.02;;
75516;SDS011;64097;52.548;13.406;2023-12-07T14:09:00;37.60;;;25.27;;
75516;SDS011;64097;52.548;13.406;2023-12-07T14:11:26;38.13;;;25.15;;
75516;SDS011;64097;52.548;13.406;2023-12-07T14:13:53;39.63;;;26.02;;
75516;SDS011;64097;52.548;13.406;2023-12-07T14:16:19;40.55;;;26.63;;
75516;SDS011;64097;52.548;13.406;2023-12-07T14:18:46;38.45;;;25.55;;
75516;SDS011;64097;52.548;13.406;2023-12-07T14:21:11;36.10;;;23.65;;
75516;SDS011;64097;52.548;13.406;2023-12-07T14:23:39;39.05;;;25.85;;
75516;SDS011;64097;52.548;13.406;2023-12-07T14:26:05;36.95;;;25.13;;
75516;SDS011;64097;52.548;13.406;2023-12-07T14:28:31;41.90;;;27.85;;
75516;SDS011;64097;52.548;13.406;2023-12-07T14:30:59;42.95;;;27.63;;
75516;SDS011;64097;52.548;13.406;2023-12-07T14:33:24;41.15;;;26.85;;
75516;SDS011;64097;52.548;13.406;2023-12-07T14:35:50;40.13;;;26.80;;
75516;SDS011;64097;52.548;13.406;2023-12-07T14:38:16;43.97;;;28.13;;
75516;SDS011;64097;52.548;13.406;2023-12-07T14:40:42;42.58;;;27.80;;
75516;SDS011;64097;52.548;13.406;2023-12-07T14:43:08;43.38;;;27.33;;
75516;SDS011;64097;52.548;13.406;2023-12-07T14:45:33;43.35;;;27.17;;
75516;SDS011;64097;52.548;13.406;2023-12-07T14:47:59;39.15;;;25.02;;
75516;SDS011;64097;52.548;13.406;2023-12-07T14:50:25;37.92;;;24.17;;
75516;SDS011;64097;52.548;13.406;2023-12-07T14:52:50;37.38;;;24.20;;
75516;SDS011;64097;52.548;13.406;2023-12-07T14:55:16;41.88;;;25.98;;
75516;SDS011;64097;52.548;13.406;2023-12-07T14:57:43;35.75;;;23.42;;
75516;SDS011;64097;52.548;13.406;2023-12-07T15:00:10;35.05;;;22.95;;
75516;SDS011;64097;52.548;13.406;2023-12-07T15:02:36;34.88;;;22.50;;
75516;SDS011;64097;52.548;13.406;2023-12-07T15:05:02;36.65;;;23.00;;
75516;SDS011;64097;52.548;13.406;2023-12-07T15:07:29;40.25;;;24.50;;
75516;SDS011;64097;52.548;13.406;2023-12-07T15:09:55;37.13;;;23.88;;
75516;SDS011;64097;52.548;13.406;2023-12-07T15:12:20;37.85;;;24.20;;
75516;SDS011;64097;52.548;13.406;2023-12-07T15:14:46;38.83;;;24.42;;
75516;SDS011;64097;52.548;13.406;2023-12-07T15:17:12;35.28;;;22.05;;
75516;SDS011;64097;52.548;13.406;2023-12-07T15:19:37;37.28;;;23.40;;
75516;SDS011;64097;52.548;13.406;2023-12-07T15:22:03;35.65;;;23.55;;
75516;SDS011;64097;52.548;13.406;2023-12-07T15:24:29;37.70;;;25.00;;
75516;SDS011;64097;52.548;13.406;2023-12-07T15:26:56;35.88;;;23.70;;
75516;SDS011;64097;52.548;13.406;2023-12-07T15:29:21;36.45;;;23.23;;
75516;SDS011;64097;52.548;13.406;2023-12-07T15:31:47;35.33;;;22.83;;
75516;SDS011;64097;52.548;13.406;2023-12-07T15:34:13;37.58;;;24.58;;
75516;SDS011;64097;52.548;13.406;2023-12-07T15:36:39;39.58;;;24.38;;
75516;SDS011;64097;52.548;13.406;2023-12-07T15:39:04;40.17;;;25.77;;
75516;SDS011;64097;52.548;13.406;2023-12-07T15:41:32;41.28;;;25.45;;
75516;SDS011;64097;52.548;13.406;2023-12-07T15:43:57;40.80;;;25.83;;
75516;SDS011;64097;52.548;13.406;2023-12-07T15:46:23;38.35;;;24.15;;
75516;SDS011;64097;52.548;13.406;2023-12-07T15:48:49;40.28;;;25.17;;
75516;SDS011;64097;52.548;13.406;2023-12-07T15:51:14;41.03;;;25.83;;
75516;SDS011;64097;52.548;13.406;2023-12-07T15:53:40;40.80;;;25.48;;
75516;SDS011;64097;52.548;13.406;2023-12-07T15:56:06;37.63;;;24.90;;
75516;SDS011;64097;52.548;13.406;2023-12-07T15:58:32;41.17;;;25.67;;
75516;SDS011;64097;52.548;13.406;2023-12-07T16:00:58;37.03;;;23.27;;
75516;SDS011;64097;52.548;13.406;2023-12-07T16:03:23;36.67;;;23.35;;
75516;SDS011;64097;52.548;13.406;2023-12-07T16:05:51;35.58;;;24.30;;
75516;SDS011;64097;52.548;13.406;2023-12-07T16:08:16;37.63;;;24.08;;
75516;SDS011;64097;52.548;13.406;2023-12-07T16:10:42;36.03;;;23.73;;
75516;SDS011;64097;52.548;13.406;2023-12-07T16:13:08;36.30;;;23.27;;
75516;SDS011;64097;52.548;13.406;2023-12-07T16:15:35;37.70;;;24.65;;
75516;SDS011;64097;52.548;13.406;2023-12-07T16:18:01;33.47;;;22.10;;
75516;SDS011;64097;52.548;13.406;2023-12-07T16:20:27;35.53;;;22.88;;
75516;SDS011;64097;52.548;13.406;2023-12-07T16:22:53;36.97;;;23.23;;
75516;SDS011;64097;52.548;13.406;2023-12-07T16:25:18;37.30;;;23.17;;
75516;SDS011;64097;52.548;13.406;2023-12-07T16:27:44;38.00;;;23.00;;
75516;SDS011;64097;52.548;13.406;2023-12-07T16:30:10;34.25;;;22.75;;
75516;SDS011;64097;52.548;13.406;2023-12-07T16:32:39;35.15;;;23.50;;
75516;SDS011;64097;52.548;13.406;2023-12-07T16:35:06;34.00;;;22.50;;
75516;SDS011;64097;52.548;13.406;2023-12-07T16:37:32;36.72;;;23.80;;
75516;SDS011;64097;52.548;13.406;2023-12-07T16:39:59;38.50;;;23.73;;
75516;SDS011;64097;52.548;13.406;2023-12-07T16:42:24;40.63;;;24.77;;
75516;SDS011;64097;52.548;13.406;2023-12-07T16:44:50;37.08;;;23.20;;
75516;SDS011;64097;52.548;13.406;2023-12-07T16:47:17;37.22;;;23.90;;
75516;SDS011;64097;52.548;13.406;2023-12-07T16:49:43;42.17;;;25.42;;
75516;SDS011;64097;52.548;13.406;2023-12-07T16:52:09;41.25;;;25.35;;
75516;SDS011;64097;52.548;13.406;2023-12-07T16:54:34;42.42;;;26.30;;
75516;SDS011;64097;52.548;13.406;2023-12-07T16:57:00;39.92;;;24.88;;
75516;SDS011;64097;52.548;13.406;2023-12-07T16:59:26;40.47;;;24.65;;
75516;SDS011;64097;52.548;13.406;2023-12-07T17:01:52;42.38;;;24.52;;
75516;SDS011;64097;52.548;13.406;2023-12-07T17:04:17;41.03;;;24.73;;
75516;SDS011;64097;52.548;13.406;2023-12-07T17:06:43;44.80;;;27.48;;
75516;SDS011;64097;52.548;13.406;2023-12-07T17:09:10;47.95;;;27.60;;
75516;SDS011;64097;52.548;13.406;2023-12-07T17:11:36;45.17;;;26.63;;
75516;SDS011;64097;52.548;13.406;2023-12-07T17:14:01;44.97;;;26.98;;
75516;SDS011;64097;52.548;13.406;2023-12-07T17:16:28;44.33;;;26.25;;
75516;SDS011;64097;52.548;13.406;2023-12-07T17:18:54;45.65;;;26.55;;
75516;SDS011;64097;52.548;13.406;2023-12-07T17:21:20;46.30;;;26.48;;
75516;SDS011;64097;52.548;13.406;2023-12-07T17:23:46;47.88;;;26.30;;
75516;SDS011;64097;52.548;13.406;2023-12-07T17:26:12;47.72;;;28.60;;
75516;SDS011;64097;52.548;13.406;2023-12-07T17:28:39;46.35;;;27.13;;
75516;SDS011;64097;52.548;13.406;2023-12-07T17:31:04;43.38;;;25.77;;
75516;SDS011;64097;52.548;13.406;2023-12-07T17:33:30;43.35;;;26.02;;
75516;SDS011;64097;52.548;13.406;2023-12-07T17:35:56;44.45;;;26.20;;
75516;SDS011;64097;52.548;13.406;2023-12-07T17:38:21;39.45;;;24.50;;
75516;SDS011;64097;52.548;13.406;2023-12-07T17:40:47;41.05;;;24.60;;
75516;SDS011;64097;52.548;13.406;2023-12-07T17:43:12;41.97;;;24.00;;
75516;SDS011;64097;52.548;13.406;2023-12-07T17:45:39;39.22;;;22.88;;
75516;SDS011;64097;52.548;13.406;2023-12-07T17:48:05;41.90;;;24.55;;
75516;SDS011;64097;52.548;13.406;2023-12-07T17:50:36;38.92;;;23.27;;
75516;SDS011;64097;52.548;13.406;2023-12-07T17:53:04;41.80;;;24.13;;
75516;SDS011;64097;52.548;13.406;2023-12-07T17:55:30;40.72;;;23.77;;
75516;SDS011;64097;52.548;13.406;2023-12-07T17:57:56;40.55;;;23.38;;
75516;SDS011;64097;52.548;13.406;2023-12-07T18:00:22;38.25;;;22.58;;
75516;SDS011;64097;52.548;13.406;2023-12-07T18:02:48;43.88;;;24.30;;
75516;SDS011;64097;52.548;13.406;2023-12-07T18:05:14;38.70;;;21.45;;
75516;SDS011;64097;52.548;13.406;2023-12-07T18:07:39;37.78;;;20.98;;
75516;SDS011;64097;52.548;13.406;2023-12-07T18:10:05;33.80;;;18.98;;
75516;SDS011;64097;52.548;13.406;2023-12-07T18:12:31;36.17;;;20.20;;
75516;SDS011;64097;52.548;13.406;2023-12-07T18:14:57;34.90;;;20.15;;
75516;SDS011;64097;52.548;13.406;2023-12-07T18:17:22;34.70;;;19.27;;
75516;SDS011;64097;52.548;13.406;2023-12-07T18:19:48;31.73;;;18.50;;
75516;SDS011;64097;52.548;13.406;2023-12-07T18:22:13;34.83;;;19.10;;
75516;SDS011;64097;52.548;13.406;2023-12-07T18:24:39;34.47;;;19.73;;
75516;SDS011;64097;52.548;13.406;2023-12-07T18:27:05;32.53;;;19.10;;
75516;SDS011;64097;52.548;13.406;2023-12-07T18:29:31;32.55;;;19.80;;
75516;SDS011;64097;52.548;13.406;2023-12-07T18:31:59;33.22;;;19.85;;
75516;SDS011;64097;52.548;13.406;2023-12-07T18:34:26;29.38;;;17.92;;
75516;SDS011;64097;52.548;13.406;2023-12-07T18:36:51;28.60;;;18.15;;
75516;SDS011;64097;52.548;13.406;2023-12-07T18:39:17;30.77;;;17.95;;
75516;SDS011;64097;52.548;13.406;2023-12-07T18:41:43;27.30;;;16.80;;
75516;SDS011;64097;52.548;13.406;2023-12-07T18:44:08;26.88;;;16.67;;
75516;SDS011;64097;52.548;13.406;2023-12-07T18:46:35;26.90;;;17.17;;
75516;SDS011;64097;52.548;13.406;2023-12-07T18:49:01;26.60;;;17.77;;
75516;SDS011;64097;52.548;13.406;2023-12-07T18:51:26;25.70;;;17.23;;
75516;SDS011;64097;52.548;13.406;2023-12-07T18:53:52;25.25;;;17.60;;
75516;SDS011;64097;52.548;13.406;2023-12-07T18:56:18;26.63;;;17.88;;
75516;SDS011;64097;52.548;13.406;2023-12-07T18:58:43;26.38;;;17.55;;
75516;SDS011;64097;52.548;13.406;2023-12-07T19:01:09;27.35;;;18.80;;
75516;SDS011;64097;52.548;13.406;2023-12-07T19:03:35;27.55;;;18.92;;
75516;SDS011;64097;52.548;13.406;2023-12-07T19:06:00;27.92;;;19.65;;
75516;SDS011;64097;52.548;13.406;2023-12-07T19:08:28;27.52;;;18.23;;
75516;SDS011;64097;52.548;13.406;2023-12-07T19:10:54;26.48;;;17.60;;
75516;SDS011;64097;52.548;13.406;2023-12-07T19:13:20;31.20;;;19.20;;
75516;SDS011;64097;52.548;13.406;2023-12-07T19:15:46;32.30;;;21.30;;
75516;SDS011;64097;52.548;13.406;2023-12-07T19:18:11;31.30;;;20.73;;
75516;SDS011;64097;52.548;13.406;2023-12-07T19:20:37;32.17;;;20.88;;
75516;SDS011;64097;52.548;13.406;2023-12-07T19:23:03;31.25;;;20.73;;
75516;SDS011;64097;52.548;13.406;2023-12-07T19:25:28;30.77;;;20.15;;
75516;SDS011;64097;52.548;13.406;2023-12-07T19:27:55;31.30;;;21.02;;
75516;SDS011;64097;52.548;13.406;2023-12-07T19:30:21;34.63;;;21.67;;
75516;SDS011;64097;52.548;13.406;2023-12-07T19:32:46;32.22;;;21.10;;
75516;SDS011;64097;52.548;13.406;2023-12-07T19:35:13;30.77;;;20.73;;
75516;SDS011;64097;52.548;13.406;2023-12-07T19:37:38;30.58;;;20.98;;
75516;SDS011;64097;52.548;13.406;2023-12-07T19:40:04;34.85;;;22.25;;
75516;SDS011;64097;52.548;13.406;2023-12-07T19:42:31;30.67;;;20.88;;
75516;SDS011;64097;52.548;13.406;2023-12-07T19:44:57;32.72;;;22.13;;
75516;SDS011;64097;52.548;13.406;2023-12-07T19:47:22;32.47;;;21.83;;
75516;SDS011;64097;52.548;13.406;2023-12-07T19:49:48;32.50;;;22.50;;
75516;SDS011;64097;52.548;13.406;2023-12-07T19:52:14;36.25;;;24.05;;
75516;SDS011;64097;52.548;13.406;2023-12-07T19:54:40;35.22;;;23.30;;
75516;SDS011;64097;52.548;13.406;2023-12-07T19:57:05;34.72;;;23.00;;
75516;SDS011;64097;52.548;13.406;2023-12-07T19:59:31;36.22;;;23.65;;
75516;SDS011;64097;52.548;13.406;2023-12-07T20:01:57;36.35;;;23.05;;
75516;SDS011;64097;52.548;13.406;2023-12-07T20:04:23;37.88;;;24.25;;
75516;SDS011;64097;52.548;13.406;2023-12-07T20:06:48;40.30;;;26.45;;
75516;SDS011;64097;52.548;13.406;2023-12-07T20:09:14;37.42;;;24.48;;
75516;SDS011;64097;52.548;13.406;2023-12-07T20:11:43;39.60;;;25.75;;
75516;SDS011;64097;52.548;13.406;2023-12-07T20:14:09;41.75;;;25.23;;
75516;SDS011;64097;52.548;13.406;2023-12-07T20:16:35;39.20;;;25.63;;
75516;SDS011;64097;52.548;13.406;2023-12-07T20:19:01;39.22;;;25.10;;